Time;durP1;ratioP1;P1;durP2;ratioP2;P2;SDS_P1;SDS_P2;PMS_P1;PMS_P2;Temp;Humidity;BMP_temperature;BMP_pressure;BME280_temperature;BME280_humidity;BME280_pressure;Samples;Min_cycle;Max_cycle;Signal;HPM_P1;HPM_P2
2023/06/17 00:01:23;;;;;;;10.65;6.45;;;;;;;21.61;45.71;100519.81;4132830;28;20412;-70
2023/06/17 00:03:26;;;;;;;11.10;6.50;;;;;;;21.57;45.50;100506.75;4128603;28;20041;-70
2023/06/17 00:05:30;;;;;;;10.43;5.25;;;;;;;21.56;46.02;100508.50;4129607;28;20109;-70
2023/06/17 00:07:33;;;;;;;13.10;5.50;;;;;;;21.56;46.02;100499.72;4122697;28;20137;-71
2023/06/17 00:09:36;;;;;;;11.90;6.00;;;;;;;21.61;46.15;100505.72;4129454;28;20031;-70
2023/06/17 00:11:39;;;;;;;10.30;5.65;;;;;;;21.53;45.75;100503.31;4128978;28;20536;-70
2023/06/17 00:13:42;;;;;;;9.13;5.97;;;;;;;21.42;46.13;100495.69;4128432;28;20046;-70
2023/06/17 00:15:47;;;;;;;9.63;6.32;;;;;;;21.38;46.16;100488.75;4130731;28;20031;-70
2023/06/17 00:17:52;;;;;;;9.18;5.90;;;;;;;21.33;46.19;100493.28;4131757;28;20360;-71
2023/06/17 00:19:56;;;;;;;10.80;6.50;;;;;;;21.35;46.14;100493.25;4130397;28;20448;-71
2023/06/17 00:22:00;;;;;;;;;;;;;;;21.11;46.61;100487.78;4132280;28;20122;-70
2023/06/17 00:24:03;;;;;;;10.68;5.63;;;;;;;21.10;46.59;100484.28;4131701;28;20326;-70
2023/06/17 00:26:06;;;;;;;9.75;5.85;;;;;;;21.15;46.59;100483.28;4131751;28;20050;-70
2023/06/17 00:28:09;;;;;;;11.82;6.75;;;;;;;21.15;46.70;100478.00;4127157;28;20126;-70
2023/06/17 00:30:12;;;;;;;9.80;5.80;;;;;;;21.10;46.99;100480.78;4128551;28;20069;-70
2023/06/17 00:32:16;;;;;;;9.90;5.90;;;;;;;21.12;46.80;100484.22;4131327;28;20038;-70
2023/06/17 00:34:19;;;;;;;14.38;6.28;;;;;;;21.06;46.82;100473.84;4126478;28;20038;-70
2023/06/17 00:36:21;;;;;;;11.40;6.07;;;;;;;21.05;46.73;100482.69;4130399;28;20054;-69
2023/06/17 00:38:26;;;;;;;7.30;4.93;;;;;;;20.99;47.21;100480.22;4131196;28;20048;-71
2023/06/17 00:40:28;;;;;;;;;;;;;;;20.77;47.88;100478.19;4129366;28;20046;-70
2023/06/17 00:42:31;;;;;;;10.95;6.43;;;;;;;20.76;47.77;100481.72;4131051;28;19970;-70
2023/06/17 00:44:34;;;;;;;8.40;5.13;;;;;;;20.79;47.51;100476.34;4125778;28;20056;-70
2023/06/17 00:46:38;;;;;;;8.75;5.45;;;;;;;20.78;47.43;100479.91;4130506;28;20043;-71
2023/06/17 00:48:41;;;;;;;6.55;4.90;;;;;;;20.72;47.65;100474.78;4129754;28;20424;-71
2023/06/17 00:50:46;;;;;;;7.40;5.05;;;;;;;20.65;48.02;100487.28;4128474;28;20034;-71
2023/06/17 00:52:53;;;;;;;9.45;5.93;;;;;;;20.59;48.04;100482.16;4130896;28;20040;-70
2023/06/17 00:54:58;;;;;;;7.50;5.32;;;;;;;20.57;48.30;100489.25;4127491;28;20042;-70
2023/06/17 00:57:01;;;;;;;8.48;5.47;;;;;;;20.53;48.62;100482.31;4130085;28;20044;-70
2023/06/17 00:59:05;;;;;;;8.25;5.72;;;;;;;20.58;48.55;100478.63;4128303;28;20089;-70
2023/06/17 01:01:08;;;;;;;10.80;5.22;;;;;;;20.57;48.79;100482.22;4126707;28;20045;-70
2023/06/17 01:03:11;;;;;;;7.57;5.00;;;;;;;20.58;48.65;100483.06;4145383;28;20033;-71
2023/06/17 01:05:17;;;;;;;8.93;5.25;;;;;;;20.54;49.10;100474.34;4130720;28;20483;-72
2023/06/17 01:07:35;;;;;;;8.90;5.50;;;;;;;20.45;49.42;100484.31;4126635;28;20536;-72
2023/06/17 01:09:44;;;;;;;10.15;5.75;;;;;;;20.34;49.58;100476.66;4129902;28;20030;-72
2023/06/17 01:11:52;;;;;;;8.68;6.18;;;;;;;20.25;50.05;100479.53;4127779;28;20042;-70
2023/06/17 01:13:56;;;;;;;9.52;5.70;;;;;;;20.10;50.36;100486.06;4129171;28;20407;-71
2023/06/17 01:16:01;;;;;;;10.63;6.40;;;;;;;20.10;49.95;100480.78;4144712;28;20034;-71
2023/06/17 01:18:04;;;;;;;;;;;;;;;19.98;50.03;100479.31;4142994;28;20042;-71
2023/06/17 01:20:10;;;;;;;9.10;5.30;;;;;;;20.08;50.02;100483.47;4137620;28;20441;-71
2023/06/17 01:22:15;;;;;;;8.48;5.57;;;;;;;20.18;50.10;100474.41;4129434;28;20488;-71
2023/06/17 01:24:27;;;;;;;8.80;5.55;;;;;;;20.26;50.22;100486.56;4142956;28;20045;-71
2023/06/17 01:26:31;;;;;;;8.65;5.40;;;;;;;20.23;50.73;100477.78;4131134;28;20130;-71
2023/06/17 01:28:36;;;;;;;11.15;5.28;;;;;;;20.27;50.31;100483.88;4134038;28;20038;-71
2023/06/17 01:30:39;;;;;;;12.20;5.85;;;;;;;20.33;50.26;100478.44;4127719;28;20030;-70
2023/06/17 01:32:43;;;;;;;14.32;5.93;;;;;;;20.18;50.24;100479.69;4128262;28;20400;-71
2023/06/17 01:34:54;;;;;;;9.07;5.53;;;;;;;20.14;50.13;100478.03;4138789;28;20065;-70
2023/06/17 01:36:58;;;;;;;10.05;5.55;;;;;;;20.09;50.31;100479.91;4142180;28;20091;-71
2023/06/17 01:39:03;;;;;;;8.80;5.33;;;;;;;20.11;49.93;100472.84;4141103;28;20472;-70
2023/06/17 01:41:15;;;;;;;9.15;6.07;;;;;;;20.10;50.01;100471.09;4146171;28;20837;-70
2023/06/17 01:43:19;;;;;;;10.15;5.97;;;;;;;20.08;50.01;100470.28;4145402;28;20429;-70
2023/06/17 01:45:24;;;;;;;8.65;6.05;;;;;;;20.07;49.87;100472.97;4112199;28;20502;-70
2023/06/17 01:47:27;;;;;;;;;;;;;;;19.94;49.99;100472.38;4136485;28;20100;-70
2023/06/17 01:49:30;;;;;;;7.10;5.07;;;;;;;19.98;49.61;100476.69;4126085;28;19984;-70
2023/06/17 01:51:33;;;;;;;9.52;5.30;;;;;;;19.93;50.12;100470.63;4129559;28;20128;-71
2023/06/17 01:53:36;;;;;;;10.05;5.25;;;;;;;19.94;50.17;100475.03;4130229;28;20042;-71
2023/06/17 01:55:39;;;;;;;7.53;5.10;;;;;;;19.91;50.00;100478.59;4112946;28;20061;-71
2023/06/17 01:57:43;;;;;;;10.13;6.07;;;;;;;19.85;50.51;100471.69;4134273;28;20496;-70
2023/06/17 01:59:46;;;;;;;10.45;6.07;;;;;;;19.83;50.28;100472.63;4129354;28;20679;-71
2023/06/17 02:01:49;;;;;;;9.15;6.00;;;;;;;19.83;50.85;100469.97;4128936;28;20174;-71
2023/06/17 02:03:52;;;;;;;10.43;6.35;;;;;;;19.84;50.85;100472.63;4128443;28;20129;-71
2023/06/17 02:05:59;;;;;;;9.07;6.43;;;;;;;19.83;50.94;100476.16;4143192;28;20080;-71
2023/06/17 02:08:04;;;;;;;9.82;5.80;;;;;;;19.83;51.27;100477.91;4129541;28;20049;-71
2023/06/17 02:10:08;;;;;;;9.77;6.28;;;;;;;19.80;50.98;100481.50;4144859;28;20547;-70
2023/06/17 02:12:12;;;;;;;;;;;;;;;19.66;51.65;100473.88;4123439;28;20121;-71
2023/06/17 02:14:17;;;;;;;9.32;7.10;;;;;;;19.70;51.52;100474.69;4125937;28;19921;-71
2023/06/17 02:16:20;;;;;;;9.07;6.60;;;;;;;19.66;52.07;100473.88;4113662;28;20165;-71
2023/06/17 02:18:24;;;;;;;9.65;6.20;;;;;;;19.66;52.22;100480.91;4146831;28;20045;-71
2023/06/17 02:20:27;;;;;;;13.07;6.97;;;;;;;19.61;52.54;100474.88;4142672;28;20033;-70
2023/06/17 02:22:30;;;;;;;13.38;7.13;;;;;;;19.60;52.39;100467.88;4130069;28;20042;-71
2023/06/17 02:24:33;;;;;;;10.18;7.38;;;;;;;19.62;52.35;100471.34;4130630;28;20044;-71
2023/06/17 02:26:36;;;;;;;12.07;6.63;;;;;;;19.64;52.56;100472.16;4113203;28;20051;-70
2023/06/17 02:28:42;;;;;;;10.88;7.20;;;;;;;19.66;52.78;100465.09;4128806;28;20547;-70
2023/06/17 02:30:46;;;;;;;9.57;5.90;;;;;;;19.69;52.69;100465.03;4132293;28;20045;-70
2023/06/17 02:32:49;;;;;;;15.95;6.32;;;;;;;19.66;53.13;100468.59;4136472;28;20609;-70
2023/06/17 02:34:57;;;;;;;9.20;6.55;;;;;;;19.62;53.17;100468.69;4129126;28;20048;-70
2023/06/17 02:37:02;;;;;;;10.63;6.38;;;;;;;19.52;53.36;100471.56;4129446;28;20038;-70
2023/06/17 02:39:06;;;;;;;10.95;6.53;;;;;;;19.45;53.77;100464.69;4131847;28;20038;-70
2023/06/17 02:41:09;;;;;;;10.02;5.43;;;;;;;19.40;53.32;100456.00;4142558;28;20033;-70
2023/06/17 02:43:12;;;;;;;10.43;6.78;;;;;;;19.38;53.50;100459.56;4131586;28;20089;-70
2023/06/17 02:45:15;;;;;;;14.98;7.28;;;;;;;19.36;53.74;100455.22;4128041;28;20042;-71
2023/06/17 02:47:19;;;;;;;9.23;6.95;;;;;;;19.34;53.61;100461.41;4127946;28;20125;-71
2023/06/17 02:49:23;;;;;;;10.40;7.25;;;;;;;19.31;53.23;100453.59;4139352;28;20038;-70
2023/06/17 02:51:27;;;;;;;9.48;6.72;;;;;;;19.29;53.24;100463.28;4138129;28;20041;-71
2023/06/17 02:53:30;;;;;;;9.07;6.28;;;;;;;19.29;53.36;100455.38;4137354;28;20049;-71
2023/06/17 02:55:34;;;;;;;11.25;7.25;;;;;;;19.28;53.52;100456.28;4111391;28;20091;-71
2023/06/17 02:57:46;;;;;;;11.52;6.50;;;;;;;19.30;54.08;100462.38;4127763;28;20397;-71
2023/06/17 02:59:49;;;;;;;9.73;6.95;;;;;;;19.29;53.87;100456.25;4127652;28;20403;-71
2023/06/17 03:01:52;;;;;;;9.48;6.00;;;;;;;19.27;53.94;100460.66;4127924;28;20064;-71
2023/06/17 03:04:01;;;;;;;8.02;6.07;;;;;;;19.27;53.73;100457.19;4142654;28;20147;-71
2023/06/17 03:06:06;;;;;;;11.13;6.10;;;;;;;19.20;54.02;100456.44;4126809;28;20035;-71
2023/06/17 03:08:14;;;;;;;13.63;7.32;;;;;;;19.16;54.25;100455.66;4127384;28;20042;-71
2023/06/17 03:10:17;;;;;;;16.35;6.30;;;;;;;19.18;54.41;100464.38;4127266;28;20034;-70
2023/06/17 03:12:26;;;;;;;10.02;6.75;;;;;;;19.16;54.33;100470.59;4141640;28;20102;-71
2023/06/17 03:14:30;;;;;;;13.35;6.57;;;;;;;19.17;54.04;100467.03;4125212;28;20439;-71
2023/06/17 03:16:34;;;;;;;;;;;;;;;19.06;54.26;100469.91;4127088;28;20042;-71
2023/06/17 03:18:38;;;;;;;13.90;6.97;;;;;;;19.04;54.03;100469.09;4132608;28;20016;-71
2023/06/17 03:20:43;;;;;;;10.55;6.88;;;;;;;19.09;53.69;100469.84;4129430;28;20069;-70
2023/06/17 03:22:47;;;;;;;12.55;6.90;;;;;;;19.12;52.63;100471.56;4131986;28;20494;-70
2023/06/17 03:24:50;;;;;;;;;;;;;;;18.96;53.04;100471.88;4132942;28;20081;-70
2023/06/17 03:26:53;;;;;;;10.32;6.57;;;;;;;19.00;53.29;100470.06;4130533;28;19930;-70
2023/06/17 03:28:56;;;;;;;9.82;6.28;;;;;;;19.02;52.72;100463.81;4128355;28;20042;-70
2023/06/17 03:30:59;;;;;;;11.45;6.57;;;;;;;19.02;52.04;100476.13;4127842;28;20034;-70
2023/06/17 03:33:03;;;;;;;9.83;6.10;;;;;;;19.04;52.28;100471.72;4128543;28;20424;-70
2023/06/17 03:35:07;;;;;;;8.85;6.25;;;;;;;19.04;52.22;100471.72;4127249;28;20294;-70
2023/06/17 03:37:12;;;;;;;9.77;5.85;;;;;;;19.01;52.56;100471.75;4129243;28;20046;-70
2023/06/17 03:39:15;;;;;;;13.07;6.28;;;;;;;19.02;52.54;100476.13;4113703;28;20579;-70
2023/06/17 03:41:18;;;;;;;9.68;5.88;;;;;;;18.97;52.97;100470.13;4129843;28;20560;-70
2023/06/17 03:43:20;;;;;;;11.60;6.65;;;;;;;18.90;53.59;100473.78;4127936;28;20050;-70
2023/06/17 03:45:25;;;;;;;10.38;6.05;;;;;;;18.92;53.70;100475.44;4133384;28;20613;-70
2023/06/17 03:47:31;;;;;;;8.05;5.60;;;;;;;18.87;54.89;100468.56;4137638;28;20034;-70
2023/06/17 03:49:35;;;;;;;10.73;6.95;;;;;;;18.87;54.75;100466.78;4143030;28;20045;-70
2023/06/17 03:51:38;;;;;;;14.02;6.45;;;;;;;18.90;55.15;100473.78;4139297;28;20101;-70
2023/06/17 03:53:42;;;;;;;10.23;6.75;;;;;;;18.93;55.74;100473.72;4128135;28;20039;-70
2023/06/17 03:55:46;;;;;;;9.70;6.72;;;;;;;18.93;55.78;100474.56;4127585;28;20030;-70
2023/06/17 03:57:49;;;;;;;15.88;7.60;;;;;;;18.93;56.39;100478.97;4144164;28;20585;-70
2023/06/17 03:59:52;;;;;;;9.48;6.38;;;;;;;18.93;56.93;100481.59;4130029;28;20038;-70
2023/06/17 04:01:55;;;;;;;9.70;6.55;;;;;;;18.89;57.03;100479.94;4134009;28;20507;-70
2023/06/17 04:03:58;;;;;;;13.77;7.10;;;;;;;18.88;57.37;100480.81;4127732;28;20540;-70
2023/06/17 04:06:01;;;;;;;11.40;7.05;;;;;;;18.92;57.14;100480.72;4128186;28;20089;-70
2023/06/17 04:08:06;;;;;;;10.10;7.83;;;;;;;18.90;56.95;100479.03;4127677;28;20086;-70
2023/06/17 04:10:10;;;;;;;;;;;;;;;18.82;57.18;100477.38;4113200;28;20298;-70
2023/06/17 04:12:15;;;;;;;10.57;6.50;;;;;;;18.88;56.69;100479.06;4115991;28;19957;-70
2023/06/17 04:14:18;;;;;;;;;;;;;;;18.82;56.73;100482.66;4130861;28;20125;-70
2023/06/17 04:16:23;;;;;;;12.75;7.35;;;;;;;18.90;56.59;100481.69;4124166;28;20323;-70
2023/06/17 04:18:27;;;;;;;14.32;6.45;;;;;;;18.96;56.83;100478.91;4127633;28;20053;-70
2023/06/17 04:20:34;;;;;;;10.25;7.22;;;;;;;18.99;56.88;100471.78;4144678;28;20042;-70
2023/06/17 04:22:38;;;;;;;12.55;6.22;;;;;;;19.07;56.77;100476.03;4127672;28;20039;-70
2023/06/17 04:24:42;;;;;;;9.35;6.18;;;;;;;19.09;56.40;100480.38;4127877;28;20041;-70
2023/06/17 04:26:46;;;;;;;11.15;6.70;;;;;;;19.14;56.26;100478.53;4126368;28;20039;-70
2023/06/17 04:28:51;;;;;;;10.68;6.93;;;;;;;19.13;55.46;100482.06;4117000;28;20053;-70
2023/06/17 04:30:54;;;;;;;11.32;7.05;;;;;;;19.15;55.15;100474.97;4133339;28;20488;-71
2023/06/17 04:33:00;;;;;;;11.27;6.88;;;;;;;19.19;54.61;100474.03;4109581;28;20129;-71
2023/06/17 04:35:04;;;;;;;9.18;6.50;;;;;;;19.24;53.89;100473.06;4140743;28;20030;-70
2023/06/17 04:37:12;;;;;;;11.80;6.53;;;;;;;19.26;53.70;100472.13;4130712;28;20038;-70
2023/06/17 04:39:15;;;;;;;9.93;6.82;;;;;;;19.30;54.10;100472.94;4130845;28;20077;-70
2023/06/17 04:41:19;;;;;;;13.63;6.30;;;;;;;19.32;53.90;100468.50;4113659;28;20062;-71
2023/06/17 04:43:25;;;;;;;9.95;6.35;;;;;;;19.35;54.48;100473.72;4129882;28;20117;-71
2023/06/17 04:45:28;;;;;;;10.35;6.30;;;;;;;19.33;54.30;100478.13;4147127;28;20041;-71
2023/06/17 04:47:35;;;;;;;11.10;6.75;;;;;;;19.38;54.84;100475.38;4140690;28;20084;-59
2023/06/17 04:49:41;;;;;;;6.28;4.65;;;;;;;19.69;54.22;100471.16;4129154;28;20084;-59
2023/06/17 04:51:44;;;;;;;7.43;5.25;;;;;;;20.14;53.20;100477.19;4144315;28;20042;-58
2023/06/17 04:53:47;;;;;;;9.95;6.07;;;;;;;20.40;53.01;100468.59;4145295;28;20038;-59
2023/06/17 04:55:51;;;;;;;8.15;5.90;;;;;;;20.56;52.85;100475.19;4128757;28;20092;-58
2023/06/17 04:57:55;;;;;;;10.00;5.85;;;;;;;20.69;52.64;100474.88;4129927;28;20038;-59
2023/06/17 05:00:12;;;;;;;8.23;6.15;;;;;;;20.78;52.67;100472.00;4129454;28;20427;-59
2023/06/17 05:02:16;;;;;;;9.85;5.72;;;;;;;20.87;52.63;100473.50;4131109;28;20034;-59
2023/06/17 05:04:19;;;;;;;11.75;5.80;;;;;;;20.94;52.62;100480.34;4134936;28;20038;-59
2023/06/17 05:06:23;;;;;;;11.52;6.05;;;;;;;21.03;52.79;100479.22;4131330;28;20042;-58
2023/06/17 05:08:26;;;;;;;9.10;6.05;;;;;;;21.16;52.75;100471.78;4130770;28;20053;-58
2023/06/17 05:10:29;;;;;;;9.55;6.03;;;;;;;21.24;52.52;100485.66;4144318;28;20038;-59
2023/06/17 05:12:32;;;;;;;9.85;5.20;;;;;;;21.30;52.29;100481.97;4128543;28;20459;-59
2023/06/17 05:14:35;;;;;;;14.50;6.22;;;;;;;21.34;51.78;100484.47;4127268;28;20120;-59
2023/06/17 05:16:39;;;;;;;11.80;6.35;;;;;;;21.42;51.31;100486.84;4145158;28;20125;-59
2023/06/17 05:18:43;;;;;;;9.25;6.28;;;;;;;21.49;51.01;100480.47;4132900;28;20046;-59
2023/06/17 05:20:46;;;;;;;10.07;5.85;;;;;;;21.57;51.06;100483.78;4138871;28;20042;-59
2023/06/17 05:22:48;;;;;;;10.45;6.15;;;;;;;21.61;50.70;100480.13;4129481;28;20488;-58
2023/06/17 05:24:52;;;;;;;9.85;6.20;;;;;;;21.60;50.32;100486.34;4139068;28;20134;-58
2023/06/17 05:26:55;;;;;;;11.23;6.15;;;;;;;21.60;49.86;100481.03;4150211;28;20030;-58
2023/06/17 05:28:58;;;;;;;13.10;6.80;;;;;;;21.64;49.29;100483.59;4141111;28;20122;-58
2023/06/17 05:31:02;;;;;;;9.35;5.95;;;;;;;21.74;49.08;100485.03;4135531;28;20046;-58
2023/06/17 05:33:06;;;;;;;10.48;5.93;;;;;;;21.81;48.93;100483.91;4134701;28;20449;-58
2023/06/17 05:35:09;;;;;;;9.95;5.78;;;;;;;21.87;48.68;100478.41;4137964;28;20122;-58
2023/06/17 05:37:13;;;;;;;9.20;6.35;;;;;;;21.91;48.53;100488.00;4126372;28;20431;-58
2023/06/17 05:39:16;;;;;;;10.10;5.97;;;;;;;21.92;48.69;100481.81;4131361;28;20038;-59
2023/06/17 05:41:19;;;;;;;8.85;5.78;;;;;;;21.94;48.52;100490.53;4136650;28;20044;-59
2023/06/17 05:43:26;;;;;;;9.63;6.40;;;;;;;22.02;48.21;100482.38;4157394;28;20042;-58
2023/06/17 05:45:29;;;;;;;9.68;6.65;;;;;;;22.06;48.07;100488.41;4138030;28;20077;-58
2023/06/17 05:47:32;;;;;;;12.30;6.05;;;;;;;22.12;47.89;100493.50;4139734;28;20125;-59
2023/06/17 05:49:36;;;;;;;11.50;5.93;;;;;;;22.16;47.76;100494.28;4123965;28;20043;-59
2023/06/17 05:51:39;;;;;;;10.10;5.65;;;;;;;22.17;47.36;100491.59;4131344;28;20065;-58
2023/06/17 05:53:42;;;;;;;10.23;6.70;;;;;;;22.21;47.26;100493.22;4139297;28;20520;-59
2023/06/17 05:55:48;;;;;;;9.00;6.07;;;;;;;22.27;46.88;100486.84;4132401;28;20042;-58
2023/06/17 05:57:52;;;;;;;8.10;5.90;;;;;;;22.30;46.82;100492.03;4124931;28;20042;-58
2023/06/17 05:59:55;;;;;;;9.82;6.57;;;;;;;22.33;46.59;100496.38;4130722;28;20034;-58
2023/06/17 06:01:58;;;;;;;8.80;5.60;;;;;;;22.36;46.15;100502.44;4110895;28;20133;-58
2023/06/17 06:04:02;;;;;;;9.13;6.50;;;;;;;22.43;46.15;100495.19;4137558;28;20511;-58
2023/06/17 06:06:06;;;;;;;9.20;5.80;;;;;;;22.45;45.81;100491.53;4145370;28;20343;-58
2023/06/17 06:08:10;;;;;;;10.25;6.03;;;;;;;22.49;45.22;100500.25;4128233;28;20034;-58
2023/06/17 06:10:13;;;;;;;9.48;6.53;;;;;;;22.51;45.28;100501.06;4149726;28;20507;-58
2023/06/17 06:12:20;;;;;;;11.65;6.82;;;;;;;22.55;45.35;100502.69;4127657;28;20085;-65
2023/06/17 06:14:22;;;;;;;11.00;6.28;;;;;;;22.53;45.43;100503.66;4141506;28;20077;-65
2023/06/17 06:16:26;;;;;;;14.32;7.95;;;;;;;22.48;45.89;100504.66;4128974;28;20061;-65
2023/06/17 06:18:30;;;;;;;10.20;6.80;;;;;;;22.48;45.39;100502.00;4126366;28;20085;-65
2023/06/17 06:20:32;;;;;;;11.27;7.72;;;;;;;22.50;44.96;100507.25;4145374;28;20069;-65
2023/06/17 06:22:38;;;;;;;12.77;7.07;;;;;;;22.57;45.01;100503.47;4115073;28;20046;-65
2023/06/17 06:24:41;;;;;;;13.00;6.65;;;;;;;22.63;45.08;100508.59;4116058;28;20049;-65
2023/06/17 06:26:44;;;;;;;8.93;6.32;;;;;;;22.57;45.29;100518.53;4114906;28;20043;-66
2023/06/17 06:28:49;;;;;;;10.32;6.30;;;;;;;22.59;45.58;100508.72;4130340;28;20042;-65
2023/06/17 06:30:53;;;;;;;12.98;8.13;;;;;;;22.57;45.05;100508.78;4120246;28;20144;-66
2023/06/17 06:32:56;;;;;;;10.88;6.80;;;;;;;22.56;45.22;100514.13;4125629;28;20039;-66
2023/06/17 06:35:00;;;;;;;11.32;7.60;;;;;;;22.52;45.36;100517.84;4130884;28;20045;-66
2023/06/17 06:37:03;;;;;;;12.77;9.55;;;;;;;22.57;44.11;100522.03;4130874;28;20085;-66
2023/06/17 06:39:08;;;;;;;11.20;8.57;;;;;;;22.68;43.70;100516.38;4133437;28;20129;-66
2023/06/17 06:41:11;;;;;;;11.77;8.10;;;;;;;22.79;43.79;100521.28;4148357;28;20084;-66
2023/06/17 06:43:23;;;;;;;11.25;7.20;;;;;;;22.87;44.03;100513.94;4129030;28;20042;-66
2023/06/17 06:45:30;;;;;;;15.20;7.88;;;;;;;22.91;44.43;100515.56;4131674;28;20065;-66
2023/06/17 06:47:34;;;;;;;12.57;7.47;;;;;;;22.95;44.76;100517.16;4135601;28;20053;-66
2023/06/17 06:49:37;;;;;;;12.23;8.25;;;;;;;23.02;43.54;100517.81;4133955;28;20046;-66
2023/06/17 06:51:42;;;;;;;13.32;7.85;;;;;;;23.03;43.06;100519.53;4124257;28;20512;-67
2023/06/17 06:53:45;;;;;;;10.95;8.00;;;;;;;23.12;42.75;100527.19;4142665;28;20068;-66
2023/06/17 06:55:49;;;;;;;9.82;6.70;;;;;;;23.10;43.39;100522.81;4139535;28;20042;-66
2023/06/17 06:57:53;;;;;;;10.65;7.38;;;;;;;23.17;42.96;100529.66;4138078;28;20041;-66
2023/06/17 06:59:56;;;;;;;12.23;7.15;;;;;;;23.27;43.12;100525.72;4144317;28;20038;-66
2023/06/17 07:01:59;;;;;;;8.80;6.20;;;;;;;23.33;43.52;100533.47;4138509;28;20039;-66
2023/06/17 07:04:02;;;;;;;11.50;7.35;;;;;;;23.42;43.42;100531.38;4136608;28;20104;-66
2023/06/17 07:06:05;;;;;;;14.32;8.75;;;;;;;23.49;42.98;100532.88;4137196;28;20046;-66
2023/06/17 07:08:08;;;;;;;16.50;10.02;;;;;;;23.53;42.36;100534.50;4128163;28;20046;-66
2023/06/17 07:10:11;;;;;;;15.15;10.23;;;;;;;23.57;42.52;100540.53;4129835;28;20034;-66
2023/06/17 07:12:15;;;;;;;13.57;10.13;;;;;;;23.57;42.00;100536.13;4129517;28;20034;-67
2023/06/17 07:14:18;;;;;;;18.60;10.55;;;;;;;23.60;41.89;100535.16;4148369;28;20048;-67
2023/06/17 07:16:21;;;;;;;15.77;9.77;;;;;;;23.60;41.60;100541.31;4128586;28;20441;-68
2023/06/17 07:18:24;;;;;;;14.03;9.20;;;;;;;23.65;41.94;100538.47;4114286;28;20050;-69
2023/06/17 07:20:28;;;;;;;17.10;10.07;;;;;;;23.80;41.41;100542.28;4112358;28;20050;-67
2023/06/17 07:22:32;;;;;;;10.93;8.85;;;;;;;23.86;41.77;100544.78;4125985;28;20455;-67
2023/06/17 07:24:36;;;;;;;12.82;8.40;;;;;;;23.94;41.44;100539.13;4137583;28;20044;-67
2023/06/17 07:26:39;;;;;;;14.45;8.65;;;;;;;24.00;41.62;100544.19;4135725;28;20508;-68
2023/06/17 07:28:43;;;;;;;13.23;9.43;;;;;;;24.07;40.92;100540.38;4130225;28;20039;-64
2023/06/17 07:30:47;;;;;;;;;;;;;;;24.14;41.34;100539.19;4127013;28;20038;-67
2023/06/17 07:32:50;;;;;;;16.67;8.80;;;;;;;24.12;40.29;100530.41;4113199;28;19926;-67
2023/06/17 07:34:54;;;;;;;20.48;9.15;;;;;;;24.22;40.09;100538.88;4128991;28;20065;-67
2023/06/17 07:37:00;;;;;;;12.48;7.70;;;;;;;24.25;39.68;100540.53;4121437;28;20137;-65
2023/06/17 07:39:03;;;;;;;9.65;7.80;;;;;;;24.18;39.79;100527.53;4129600;28;20035;-67
2023/06/17 07:41:06;;;;;;;11.45;7.18;;;;;;;24.25;40.37;100533.41;4135376;28;20038;-67
2023/06/17 07:43:10;;;;;;;11.25;6.40;;;;;;;24.40;40.67;100538.09;4153299;28;20508;-66
2023/06/17 07:45:14;;;;;;;12.55;6.38;;;;;;;24.49;40.26;100531.53;4129422;28;20117;-66
2023/06/17 07:47:17;;;;;;;10.38;6.88;;;;;;;24.53;39.84;100529.59;4129074;28;20072;-66
2023/06/17 07:49:20;;;;;;;11.85;7.22;;;;;;;24.55;39.42;100535.72;4124991;28;20050;-66
2023/06/17 07:51:23;;;;;;;12.50;6.85;;;;;;;24.52;39.33;100536.72;4130476;28;20481;-66
2023/06/17 07:53:26;;;;;;;10.48;5.85;;;;;;;24.61;39.63;100531.97;4127375;28;20046;-66
2023/06/17 07:55:29;;;;;;;11.85;7.45;;;;;;;24.63;38.93;100517.66;4111603;28;20533;-66
2023/06/17 07:57:32;;;;;;;13.80;7.50;;;;;;;24.72;38.83;100519.94;4121574;28;20459;-66
2023/06/17 07:59:35;;;;;;;9.75;5.85;;;;;;;24.77;39.39;100529.53;4130299;28;20135;-66
2023/06/17 08:01:39;;;;;;;13.63;7.53;;;;;;;24.82;39.21;100525.69;4129039;28;20818;-66
2023/06/17 08:03:42;;;;;;;;;;;;;;;24.84;39.41;100525.66;4130217;28;20092;-66
2023/06/17 08:05:45;;;;;;;11.60;5.50;;;;;;;24.95;39.18;100518.03;4130232;28;20391;-67
2023/06/17 08:07:48;;;;;;;15.65;6.10;;;;;;;25.10;39.62;100519.13;4130249;28;20128;-67
2023/06/17 08:09:51;;;;;;;10.63;5.68;;;;;;;25.20;39.34;100523.13;4138698;28;20030;-67
2023/06/17 08:11:54;;;;;;;9.40;5.93;;;;;;;25.27;39.51;100518.38;4126144;28;20089;-66
2023/06/17 08:13:57;;;;;;;7.72;5.63;;;;;;;25.32;38.79;100516.41;4129310;28;20043;-67
2023/06/17 08:16:00;;;;;;;14.15;5.95;;;;;;;25.37;38.30;100519.72;4123506;28;20081;-67
2023/06/17 08:18:26;;;;;;;10.02;6.53;;;;;;;25.43;38.34;100508.78;4134894;28;20412;-66
2023/06/17 08:20:29;;;;;;;;;;;;;;;25.46;38.57;100512.25;4133605;28;20057;-67
2023/06/17 08:22:32;;;;;;;8.25;4.95;;;;;;;25.52;38.06;100507.47;4165889;28;20271;-67
2023/06/17 08:24:35;;;;;;;10.48;5.40;;;;;;;25.58;37.90;100511.66;4150110;28;20407;-67
2023/06/17 08:26:38;;;;;;;9.70;5.50;;;;;;;25.64;38.05;100506.00;4149085;28;20100;-67
2023/06/17 08:28:41;;;;;;;9.82;6.05;;;;;;;25.59;36.44;100508.06;4150356;28;20488;-67
2023/06/17 08:30:44;;;;;;;10.52;5.85;;;;;;;25.52;36.50;100510.13;4139213;28;20755;-67
2023/06/17 08:32:46;;;;;;;10.68;6.57;;;;;;;25.57;36.29;100507.28;4128205;28;20392;-67
2023/06/17 08:34:51;;;;;;;8.43;5.80;;;;;;;25.52;36.21;100506.63;4126997;28;20035;-67
2023/06/17 08:36:54;;;;;;;;;;;;;;;25.58;36.21;100495.66;4133990;28;20042;-67
2023/06/17 08:38:57;;;;;;;10.90;6.57;;;;;;;25.49;36.23;100499.63;4127569;28;20376;-68
2023/06/17 08:40:59;;;;;;;9.48;5.93;;;;;;;25.48;36.27;100497.03;4123056;28;20038;-70
2023/06/17 08:43:03;;;;;;;15.02;7.38;;;;;;;25.61;36.13;100495.50;4131516;28;20041;-68
2023/06/17 08:45:08;;;;;;;10.60;5.35;;;;;;;25.64;36.15;100500.69;4123523;28;20602;-68
2023/06/17 08:47:15;;;;;;;9.20;6.10;;;;;;;25.83;36.45;100489.16;4122921;28;20492;-68
2023/06/17 08:49:18;;;;;;;10.50;5.65;;;;;;;25.89;35.96;100495.06;4133014;28;20162;-68
2023/06/17 08:51:23;;;;;;;9.87;5.80;;;;;;;26.04;35.08;100489.94;4130637;28;20567;-68
2023/06/17 08:53:27;;;;;;;11.75;5.20;;;;;;;26.06;35.30;100486.25;4147410;28;20099;-68
2023/06/17 08:55:30;;;;;;;13.18;5.88;;;;;;;26.10;35.97;100490.47;4150327;28;20033;-68
2023/06/17 08:57:33;;;;;;;7.55;5.10;;;;;;;26.19;35.35;100488.31;4133308;28;20514;-68
2023/06/17 08:59:36;;;;;;;14.30;6.35;;;;;;;26.35;34.58;100491.91;4108879;28;20039;-68
2023/06/17 09:01:39;;;;;;;10.18;5.82;;;;;;;26.29;35.28;100490.41;4130151;28;20105;-68
2023/06/17 09:03:44;;;;;;;8.73;5.25;;;;;;;26.35;34.66;100483.91;4130960;28;20058;-68
2023/06/17 09:05:47;;;;;;;8.23;5.80;;;;;;;26.40;34.18;100486.31;4129657;28;20041;-68
2023/06/17 09:07:52;;;;;;;9.13;4.95;;;;;;;26.45;33.75;100477.16;4126342;28;20508;-68
2023/06/17 09:09:55;;;;;;;11.82;4.88;;;;;;;26.52;35.06;100482.16;4128580;28;20035;-68
2023/06/17 09:12:04;;;;;;;7.50;5.00;;;;;;;26.65;34.57;100480.59;4140251;28;20099;-68
2023/06/17 09:14:07;;;;;;;11.90;5.55;;;;;;;26.74;34.48;100479.28;4122533;28;20126;-68
2023/06/17 09:16:11;;;;;;;12.30;5.63;;;;;;;26.85;34.88;100478.69;4128163;28;20038;-68
2023/06/17 09:18:16;;;;;;;7.55;5.63;;;;;;;26.98;33.74;100469.97;4126288;28;20089;-67
2023/06/17 09:20:20;;;;;;;6.80;5.00;;;;;;;26.99;33.36;100473.47;4119573;28;20047;-68
2023/06/17 09:22:26;;;;;;;9.88;5.50;;;;;;;27.10;32.84;100468.44;4134350;28;20046;-68
2023/06/17 09:24:31;;;;;;;19.55;6.10;;;;;;;27.18;31.57;100474.19;4120307;28;20046;-68
2023/06/17 09:26:35;;;;;;;8.13;5.15;;;;;;;27.21;32.71;100469.66;4122376;28;20296;-67
2023/06/17 09:28:38;;;;;;;;;;;;;;;27.22;32.50;100466.00;4132456;28;20130;-67
2023/06/17 09:30:43;;;;;;;7.82;5.13;;;;;;;27.18;30.86;100460.84;4122474;28;19925;-68
2023/06/17 09:32:46;;;;;;;11.32;5.53;;;;;;;27.30;30.85;100456.63;4124313;28;20072;-68
2023/06/17 09:34:49;;;;;;;6.10;4.38;;;;;;;27.39;31.09;100452.63;4127816;28;20424;-67
2023/06/17 09:36:55;;;;;;;15.20;7.50;;;;;;;27.56;30.29;100453.50;4131134;28;20129;-68